Time;durP1;ratioP1;P1;durP2;ratioP2;P2;SDS_P1;SDS_P2;PMS_P1;PMS_P2;Temp;Humidity;BMP_temperature;BMP_pressure;BME280_temperature;BME280_humidity;BME280_pressure;Samples;Min_cycle;Max_cycle;Signal;HPM_P1;HPM_P2
2022/01/30 00:01:03;;;;;;;58.67;54.90;;;;;;;6.55;100.00;103338.70;1942611;71;39627;-72
2022/01/30 00:06:46;;;;;;;60.20;56.20;;;;;;;6.60;100.00;103336.72;1881799;74;86074;-73
2022/01/30 00:12:40;;;;;;;57.03;53.43;;;;;;;6.98;100.00;103336.73;1883995;75;86496;-72
2022/01/30 00:18:32;;;;;;;56.73;53.10;;;;;;;7.06;100.00;103332.98;1924600;71;86013;-76
2022/01/30 00:24:13;;;;;;;58.90;55.00;;;;;;;6.43;100.00;103355.46;1924932;71;39666;-75
2022/01/30 00:29:55;;;;;;;63.90;59.37;;;;;;;6.33;100.00;103354.39;1847022;76;85406;-75
2022/01/30 00:35:39;;;;;;;64.87;60.67;;;;;;;6.01;100.00;103354.89;1877779;75;86521;-73
2022/01/30 00:41:25;;;;;;;61.60;57.23;;;;;;;6.22;100.00;103363.20;1872593;75;86397;-76
2022/01/30 00:47:13;;;;;;;60.43;56.20;;;;;;;6.29;100.00;103358.60;1933048;71;40175;-77
2022/01/30 00:52:56;;;;;;;60.70;56.57;;;;;;;6.64;100.00;103362.89;1828259;76;85291;-75
2022/01/30 00:58:41;;;;;;;60.23;56.20;;;;;;;6.47;100.00;103356.78;1827971;76;86324;-76
2022/01/30 01:04:27;;;;;;;63.17;59.23;;;;;;;6.28;100.00;103381.77;1890651;74;86355;-72
2022/01/30 01:10:17;;;;;;;59.80;55.90;;;;;;;6.35;100.00;103364.73;1943686;71;40286;-74
2022/01/30 01:28:00;;;;;;;61.07;56.97;;;;;;;5.92;100.00;103377.59;1987934;71;39610;-72
2022/01/30 01:34:01;;;;;;;62.80;58.70;;;;;;;5.73;100.00;103391.97;1877357;74;86366;-71
2022/01/30 01:39:35;;;;;;;64.17;59.93;;;;;;;5.53;100.00;103390.80;1897106;73;86649;-72
2022/01/30 01:45:22;;;;;;;64.20;59.70;;;;;;;5.44;100.00;103388.66;1925412;71;85992;-71
2022/01/30 01:51:13;;;;;;;65.00;60.63;;;;;;;5.35;100.00;103406.33;1983275;71;39513;-71
2022/01/30 01:56:52;;;;;;;64.80;60.50;;;;;;;5.10;100.00;103404.00;1824523;76;86366;-71
2022/01/30 02:02:39;;;;;;;66.07;61.90;;;;;;;5.30;100.00;103392.28;1884046;74;86411;-70
2022/01/30 02:08:34;;;;;;;64.10;59.63;;;;;;;4.84;100.00;103397.52;1907746;74;86273;-71
2022/01/30 02:14:30;;;;;;;63.77;59.43;;;;;;;4.96;100.00;103409.84;1932949;73;84969;-75
2022/01/30 02:26:14;;;;;;;63.50;59.10;;;;;;;4.48;100.00;103399.55;1938376;73;86695;-72
2022/01/30 02:32:00;;;;;;;62.10;58.03;;;;;;;4.80;100.00;103408.58;1899802;74;85605;-72
2022/01/30 02:37:47;;;;;;;62.93;58.70;;;;;;;4.86;100.00;103418.34;1877594;75;86069;-70
2022/01/30 02:43:35;;;;;;;62.97;58.50;;;;;;;5.23;100.00;103417.48;1892442;74;85378;-71
2022/01/30 02:49:40;;;;;;;60.23;56.13;;;;;;;5.85;100.00;103417.16;1913858;72;85984;-75
2022/01/30 02:55:17;;;;;;;60.67;56.93;;;;;;;5.56;100.00;103408.37;1939438;73;85314;-70
2022/01/30 03:01:00;;;;;;;61.50;57.23;;;;;;;5.36;100.00;103371.36;1897720;70;40311;-72
2022/01/30 03:06:43;;;;;;;62.90;58.73;;;;;;;5.83;100.00;103417.33;1808816;78;86559;-71
2022/01/30 03:12:28;;;;;;;61.77;57.53;;;;;;;5.95;100.00;103419.97;1912336;74;86336;-74
2022/01/30 03:18:12;;;;;;;64.60;60.13;;;;;;;5.78;100.00;103428.59;1816105;78;86278;-72
2022/01/30 03:23:56;;;;;;;63.03;59.37;;;;;;;5.62;100.00;103412.25;1972106;71;85445;-72
2022/01/30 03:29:41;;;;;;;64.20;59.80;;;;;;;5.41;100.00;103424.02;1834575;76;85441;-70
2022/01/30 03:35:25;;;;;;;63.10;58.67;;;;;;;5.49;100.00;103420.66;1934798;72;86387;-72
2022/01/30 03:41:09;;;;;;;63.30;58.90;;;;;;;5.55;100.00;103423.19;1982941;71;39709;-72
2022/01/30 03:46:54;;;;;;;63.53;59.30;;;;;;;5.53;100.00;103417.00;1853619;76;86076;-72
2022/01/30 03:52:38;;;;;;;60.97;57.03;;;;;;;5.69;100.00;103415.98;1882981;74;86435;-74
2022/01/30 03:58:24;;;;;;;59.63;55.77;;;;;;;5.29;100.00;103415.38;1925856;73;86284;-73
2022/01/30 04:04:13;;;;;;;62.40;57.80;;;;;;;5.49;100.00;103414.28;1828509;77;86193;-73
2022/01/30 04:09:57;;;;;;;62.40;58.30;;;;;;;5.38;100.00;103410.63;1837385;76;86419;-73
2022/01/30 04:15:43;;;;;;;64.13;59.20;;;;;;;5.22;100.00;103433.67;1797738;78;86332;-74
2022/01/30 04:21:30;;;;;;;60.40;56.20;;;;;;;4.94;100.00;103441.69;1943776;72;86600;-71
2022/01/30 04:27:14;;;;;;;62.63;58.30;;;;;;;5.53;100.00;103429.92;1920428;72;85998;-73
2022/01/30 04:33:03;;;;;;;60.40;56.43;;;;;;;5.19;100.00;103436.81;1892361;74;85597;-76
2022/01/30 04:38:58;;;;;;;62.33;58.20;;;;;;;5.22;100.00;103433.67;1848695;76;86695;-70
2022/01/30 04:57:14;;;;;;;60.63;56.53;;;;;;;5.34;100.00;103431.34;1895946;74;86333;-72
2022/01/30 05:02:54;;;;;;;59.90;55.97;;;;;;;5.22;100.00;103434.22;1832648;77;86325;-75
2022/01/30 05:08:33;;;;;;;59.47;55.43;;;;;;;5.26;100.00;103427.30;1879200;75;86508;-72
2022/01/30 05:14:21;;;;;;;59.10;54.50;;;;;;;5.15;100.00;103423.08;1915281;74;85659;-71
2022/01/30 05:20:09;;;;;;;58.47;54.23;;;;;;;4.92;100.00;103416.21;1975937;71;39534;-74
2022/01/30 05:25:55;;;;;;;60.67;55.90;;;;;;;4.73;100.00;103418.11;1861133;76;86255;-73
2022/01/30 05:31:41;;;;;;;60.20;55.80;;;;;;;4.47;100.00;103421.73;1839029;76;86151;-72
2022/01/30 05:37:31;;;;;;;59.87;55.30;;;;;;;4.40;100.00;103424.38;1881146;75;86586;-75
2022/01/30 05:43:18;;;;;;;60.93;56.07;;;;;;;3.84;100.00;103432.39;1915273;74;86552;-75
2022/01/30 05:49:05;;;;;;;61.07;56.57;;;;;;;3.81;100.00;103438.22;1975301;71;39525;-77
2022/01/30 05:54:49;;;;;;;61.63;57.00;;;;;;;3.51;100.00;103444.48;1848356;76;86187;-72
2022/01/30 06:00:33;;;;;;;59.23;54.40;;;;;;;3.31;100.00;103448.14;1883657;73;86328;-70
2022/01/30 06:06:16;;;;;;;59.17;54.33;;;;;;;3.15;100.00;103455.04;1924410;73;86235;-71
2022/01/30 06:12:01;;;;;;;57.47;53.10;;;;;;;3.19;100.00;103472.38;1976724;70;40398;-71
2022/01/30 06:17:47;;;;;;;58.03;53.17;;;;;;;2.91;100.00;103488.00;1898303;74;85146;-74
2022/01/30 06:23:31;;;;;;;59.00;54.40;;;;;;;2.95;100.00;103492.11;1891471;73;86820;-75
2022/01/30 06:29:16;;;;;;;57.70;53.30;;;;;;;2.83;100.00;103497.56;1917329;74;86357;-76
2022/01/30 06:35:03;;;;;;;57.57;52.70;;;;;;;2.68;100.00;103487.27;1941201;71;39792;-74
2022/01/30 06:40:47;;;;;;;59.53;54.80;;;;;;;2.71;100.00;103488.80;1819559;76;86619;-76
2022/01/30 06:46:32;;;;;;;59.07;54.77;;;;;;;2.70;100.00;103482.45;1884048;74;86439;-71
2022/01/30 06:52:17;;;;;;;57.70;53.40;;;;;;;2.48;100.00;103493.23;1926632;73;86740;-76
2022/01/30 06:58:01;;;;;;;60.07;55.30;;;;;;;2.66;100.00;103501.66;1961015;71;39535;-77
2022/01/30 07:03:48;;;;;;;61.30;56.47;;;;;;;2.51;100.00;103495.13;1856313;76;86230;-75
2022/01/30 07:09:31;;;;;;;60.50;55.43;;;;;;;2.35;100.00;103509.30;1889676;73;86456;-72
2022/01/30 07:15:14;;;;;;;56.50;52.07;;;;;;;2.29;100.00;103528.64;1940441;72;86405;-72
2022/01/30 07:21:00;;;;;;;59.37;54.60;;;;;;;2.12;100.00;103522.73;1950243;71;39579;-71
2022/01/30 07:26:44;;;;;;;59.97;54.87;;;;;;;1.99;100.00;103521.82;1909615;74;86460;-71
2022/01/30 07:32:29;;;;;;;59.67;54.50;;;;;;;2.10;100.00;103551.68;1893069;74;87035;-74
2022/01/30 07:38:13;;;;;;;56.90;52.70;;;;;;;2.19;100.00;103552.07;1915335;73;85355;-75
2022/01/30 07:43:58;;;;;;;61.40;56.93;;;;;;;2.23;100.00;103546.61;1802568;78;85464;-75
2022/01/30 07:49:42;;;;;;;63.87;59.07;;;;;;;2.33;100.00;103549.73;1808087;78;86039;-76
2022/01/30 07:55:28;;;;;;;63.30;58.27;;;;;;;2.09;100.00;103554.61;1908427;74;86381;-72
2022/01/30 08:01:13;;;;;;;56.80;52.30;;;;;;;1.91;100.00;103552.44;1926158;73;86719;-74
2022/01/30 08:06:56;;;;;;;58.53;53.70;;;;;;;2.12;100.00;103570.72;1844720;76;86745;-73
2022/01/30 08:12:40;;;;;;;57.80;52.93;;;;;;;2.13;100.00;103577.94;1786910;79;84818;-74
2022/01/30 08:18:25;;;;;;;56.93;52.70;;;;;;;2.15;100.00;103582.22;1947950;72;86197;-76
2022/01/30 08:24:10;;;;;;;60.13;55.30;;;;;;;2.32;100.00;103587.27;1984310;71;39434;-76
2022/01/30 08:29:54;;;;;;;57.13;52.30;;;;;;;2.57;100.00;103593.72;1839239;76;86385;-75
2022/01/30 08:35:38;;;;;;;59.30;54.80;;;;;;;2.52;100.00;103598.88;1883174;74;86437;-72
2022/01/30 08:41:23;;;;;;;57.47;52.57;;;;;;;2.49;100.00;103592.31;1912374;73;85644;-74
2022/01/30 08:47:08;;;;;;;62.10;57.47;;;;;;;2.58;100.00;103601.80;1977916;71;39453;-74
2022/01/30 08:52:52;;;;;;;56.13;51.70;;;;;;;2.66;100.00;103608.69;1880792;76;86255;-75
2022/01/30 08:58:36;;;;;;;57.27;52.53;;;;;;;2.79;100.00;103599.98;1883260;73;85647;-75
2022/01/30 09:04:21;;;;;;;60.73;55.77;;;;;;;3.04;100.00;103591.29;1923224;73;85660;-76
2022/01/30 09:10:07;;;;;;;61.07;56.23;;;;;;;3.10;100.00;103591.49;1976757;71;39625;-77
2022/01/30 09:15:56;;;;;;;59.30;53.87;;;;;;;3.20;100.00;103603.19;1843533;76;86354;-76
2022/01/30 09:21:37;;;;;;;57.37;52.40;;;;;;;3.42;100.00;103602.19;1914697;73;86224;-74
2022/01/30 09:27:22;;;;;;;59.17;54.33;;;;;;;3.62;100.00;103605.80;1906935;73;86285;-77
2022/01/30 09:33:06;;;;;;;63.77;58.03;;;;;;;3.73;100.00;103602.33;1944364;71;39525;-70
2022/01/30 09:38:52;;;;;;;64.50;59.50;;;;;;;3.98;100.00;103587.00;1835058;76;86078;-72
2022/01/30 09:44:39;;;;;;;62.83;57.53;;;;;;;4.15;100.00;103591.12;1884149;74;85513;-76
2022/01/30 09:50:26;;;;;;;64.00;58.30;;;;;;;4.39;100.00;103585.53;1909612;72;86058;-75
2022/01/30 09:56:10;;;;;;;60.80;55.63;;;;;;;4.56;100.00;103583.91;1977674;70;39641;-72
2022/01/30 10:01:55;;;;;;;57.73;53.00;;;;;;;4.73;100.00;103589.34;1847876;76;86135;-73
2022/01/30 10:07:48;;;;;;;60.47;55.40;;;;;;;5.40;100.00;103591.83;1884175;74;86409;-76
2022/01/30 10:13:33;;;;;;;55.43;51.00;;;;;;;5.50;100.00;103585.55;1875064;75;86453;-71
2022/01/30 10:19:24;;;;;;;62.63;57.73;;;;;;;5.58;100.00;103580.48;1936265;73;86325;-71
2022/01/30 10:25:23;;;;;;;60.10;55.20;;;;;;;5.51;100.00;103583.14;1913766;73;86344;-70
2022/01/30 10:31:24;;;;;;;62.47;57.77;;;;;;;5.71;100.00;103571.92;1904037;73;86122;-76
2022/01/30 10:37:16;;;;;;;60.00;55.37;;;;;;;5.76;100.00;103558.95;1984496;71;39909;-74
2022/01/30 10:40:05;;;;;;;58.83;54.40;;;;;;;5.91;100.00;103562.61;1908281;73;937008;-72
2022/01/30 10:45:51;;;;;;;60.13;55.53;;;;;;;5.77;100.00;103541.37;1844478;76;86385;-74
2022/01/30 10:51:35;;;;;;;60.60;56.33;;;;;;;5.91;100.00;103523.47;1881148;74;85604;-72
2022/01/30 10:57:24;;;;;;;58.60;53.97;;;;;;;6.04;100.00;103524.70;1910858;74;86613;-73
2022/01/30 11:03:09;;;;;;;64.20;59.30;;;;;;;5.98;100.00;103515.83;1963722;71;39639;-75
2022/01/30 11:09:14;;;;;;;60.33;55.70;;;;;;;6.20;100.00;103501.94;1942866;71;40352;-76
2022/01/30 11:15:16;;;;;;;60.30;55.60;;;;;;;6.24;100.00;103496.38;1963254;71;39624;-75
2022/01/30 11:20:54;;;;;;;59.07;54.30;;;;;;;6.49;100.00;103486.38;1878729;74;86771;-76
2022/01/30 11:26:39;;;;;;;58.63;54.33;;;;;;;6.61;100.00;103471.86;1883075;74;86577;-76
2022/01/30 11:32:28;;;;;;;58.50;54.50;;;;;;;6.49;100.00;103451.33;1926624;73;86035;-74
2022/01/30 11:38:13;;;;;;;59.00;54.57;;;;;;;6.55;100.00;103446.91;1909662;72;86168;-76
2022/01/30 11:44:28;;;;;;;56.83;52.57;;;;;;;6.64;100.00;103426.41;1798168;78;86003;-73
2022/01/30 11:50:39;;;;;;;51.40;47.90;;;;;;;6.99;100.00;103393.72;1902482;73;86657;-70
2022/01/30 11:56:33;;;;;;;56.37;52.27;;;;;;;6.83;100.00;103367.76;1887622;75;85319;-75
2022/01/30 12:02:25;;;;;;;51.50;47.97;;;;;;;6.97;100.00;103350.77;1914380;74;86351;-76
2022/01/30 12:08:11;;;;;;;115.60;79.03;;;;;;;7.05;100.00;103337.66;1982363;71;39612;-74
2022/01/30 12:13:55;;;;;;;62.60;57.47;;;;;;;6.90;100.00;103322.21;1844755;76;86280;-71
2022/01/30 12:20:05;;;;;;;55.93;51.23;;;;;;;7.09;100.00;103317.38;1813553;78;86331;-72
2022/01/30 12:26:03;;;;;;;52.00;47.97;;;;;;;7.17;100.00;103289.05;1947312;72;85560;-76
2022/01/30 12:31:57;;;;;;;51.30;47.67;;;;;;;7.23;100.00;103274.39;1810336;78;85432;-73
2022/01/30 12:37:40;;;;;;;50.07;46.47;;;;;;;7.51;100.00;103254.98;1799528;77;85985;-71
2022/01/30 12:43:33;;;;;;;51.73;47.87;;;;;;;7.37;100.00;103246.81;1833926;75;85398;-73
2022/01/30 12:49:24;;;;;;;50.87;46.97;;;;;;;7.64;100.00;103224.60;1940205;72;86699;-72
2022/01/30 12:55:16;;;;;;;45.17;41.77;;;;;;;8.00;100.00;103210.97;1913782;74;86496;-71
2022/01/30 13:01:11;;;;;;;44.00;40.60;;;;;;;7.98;100.00;103195.09;1932958;71;39662;-71
2022/01/30 13:06:55;;;;;;;44.47;40.70;;;;;;;8.04;100.00;103164.66;1832979;76;86608;-73
2022/01/30 13:12:45;;;;;;;43.00;40.03;;;;;;;8.17;100.00;103163.25;1795681;78;85659;-77
2022/01/30 13:18:43;;;;;;;43.23;40.30;;;;;;;8.23;100.00;103135.26;1884499;74;86123;-77
2022/01/30 13:24:28;;;;;;;37.67;34.90;;;;;;;8.28;100.00;103128.55;1915345;72;86407;-75
2022/01/30 13:30:23;;;;;;;31.80;29.67;;;;;;;8.25;100.00;103109.61;1918528;74;86362;-74
2022/01/30 13:36:10;;;;;;;36.77;34.20;;;;;;;8.37;100.00;103107.91;1941527;71;40406;-70
2022/01/30 13:42:13;;;;;;;34.30;31.93;;;;;;;8.22;100.00;103097.02;1795649;78;86311;-72
2022/01/30 13:47:55;;;;;;;35.37;32.77;;;;;;;8.41;100.00;103085.64;1834066;76;86320;-74
2022/01/30 13:57:04;;;;;;;34.87;32.13;;;;;;;8.71;100.00;103062.95;1838642;76;86746;-72
2022/01/30 14:02:56;;;;;;;33.80;31.53;;;;;;;8.93;100.00;103050.50;1844164;76;86345;-74
2022/01/30 14:12:07;;;;;;;32.87;30.33;;;;;;;8.76;100.00;103021.06;1933816;71;39676;-76
2022/01/30 14:18:14;;;;;;;30.27;27.97;;;;;;;8.73;100.00;103013.73;1832978;76;85398;-71
2022/01/30 14:24:00;;;;;;;28.80;26.33;;;;;;;8.82;100.00;102984.12;1983799;70;39578;-72
2022/01/30 14:29:45;;;;;;;28.73;26.80;;;;;;;8.69;100.00;102957.88;1902201;74;86010;-76
2022/01/30 14:35:35;;;;;;;28.70;26.30;;;;;;;8.75;100.00;102960.30;1878721;74;86157;-73
2022/01/30 14:41:20;;;;;;;28.00;25.93;;;;;;;8.65;100.00;102941.38;1924838;73;85967;-75
2022/01/30 14:47:06;;;;;;;30.43;28.23;;;;;;;8.64;100.00;102941.91;1942054;70;39719;-73
2022/01/30 14:52:51;;;;;;;30.97;28.87;;;;;;;8.71;100.00;102944.67;1959171;72;85245;-73
2022/01/30 14:58:36;;;;;;;35.83;33.67;;;;;;;8.61;100.00;102929.05;1874401;74;86260;-74
2022/01/30 15:07:28;;;;;;;36.13;33.60;;;;;;;8.57;100.00;102898.17;1954777;73;86305;-77
2022/01/30 15:09:58;;;;;;;33.57;31.67;;;;;;;8.58;100.00;102902.65;1891422;73;935867;-76
2022/01/30 15:12:34;;;;;;;28.67;26.47;;;;;;;8.61;100.00;102893.88;1874125;74;938769;-76
2022/01/30 15:15:05;;;;;;;31.97;30.07;;;;;;;8.63;100.00;102881.20;1890541;72;943805;-74
2022/01/30 15:17:38;;;;;;;31.40;29.60;;;;;;;8.71;100.00;102882.86;1920861;71;936789;-74
2022/01/30 15:20:12;;;;;;;28.45;26.35;;;;;;;8.75;100.00;102868.33;1911204;72;938963;-74
2022/01/30 15:22:44;;;;;;;29.57;27.27;;;;;;;8.83;100.00;102861.13;1898977;72;936907;-76
2022/01/30 15:25:15;;;;;;;27.10;25.03;;;;;;;8.74;100.00;102865.24;1901392;74;938836;-74
2022/01/30 15:27:45;;;;;;;28.17;26.13;;;;;;;8.76;100.00;102876.11;1907028;74;937079;-74
2022/01/30 15:30:16;;;;;;;27.30;25.23;;;;;;;8.74;100.00;102873.55;1929472;71;938797;-76
2022/01/30 15:32:46;;;;;;;27.30;25.30;;;;;;;8.75;100.00;102868.87;1913511;72;936671;-77
2022/01/30 15:35:17;;;;;;;27.73;25.83;;;;;;;8.79;100.00;102861.80;1877954;75;938765;-76
2022/01/30 15:37:48;;;;;;;27.57;25.67;;;;;;;8.74;100.00;102847.77;1874828;74;938686;-76
2022/01/30 15:40:19;;;;;;;30.23;28.27;;;;;;;8.75;100.00;102858.63;1917287;71;937902;-74
2022/01/30 15:42:49;;;;;;;26.13;24.07;;;;;;;8.74;100.00;102855.55;1898562;72;937672;-77
2022/01/30 15:51:07;;;;;;;24.67;22.87;;;;;;;8.79;100.00;102828.55;1893355;74;938733;-74
2022/01/30 15:53:38;;;;;;;25.63;23.73;;;;;;;8.81;100.00;102816.19;1891559;74;936910;-74
2022/01/30 15:56:08;;;;;;;24.70;22.90;;;;;;;8.79;100.00;102804.46;1889556;73;937613;-73
2022/01/30 15:58:38;;;;;;;24.23;22.17;;;;;;;8.67;100.00;102804.34;1902003;73;936799;-76
2022/01/30 16:01:09;;;;;;;25.00;23.30;;;;;;;8.63;100.00;102811.41;1883996;73;938834;-76
2022/01/30 16:06:53;;;;;;;23.77;22.07;;;;;;;8.61;100.00;102812.69;1822704;76;86383;-76
2022/01/30 16:15:35;;;;;;;31.77;28.97;;;;;;;8.57;100.00;102821.14;1874123;74;86242;-76
2022/01/30 16:18:38;;;;;;;27.43;25.10;;;;;;;8.44;100.00;102801.84;1884497;74;86361;-70
2022/01/30 16:24:22;;;;;;;24.30;22.77;;;;;;;8.28;100.00;102775.52;1928737;73;86105;-73
2022/01/30 16:30:10;;;;;;;27.57;25.53;;;;;;;8.18;100.00;102782.91;1946479;71;39654;-72
2022/01/30 16:35:56;;;;;;;28.40;26.40;;;;;;;8.07;100.00;102780.87;1841299;76;86287;-70
2022/01/30 16:41:47;;;;;;;28.70;26.60;;;;;;;8.13;100.00;102759.73;1795350;78;86205;-72
2022/01/30 16:47:33;;;;;;;29.27;27.37;;;;;;;8.09;100.00;102747.41;1886478;75;86461;-71
2022/01/30 16:53:18;;;;;;;31.23;29.23;;;;;;;7.99;100.00;102724.39;1917659;72;86484;-71
2022/01/30 16:59:03;;;;;;;33.63;31.13;;;;;;;7.76;100.00;102723.55;1983863;71;39672;-70
2022/01/30 17:11:11;;;;;;;34.57;31.97;;;;;;;7.68;100.00;102721.05;1980009;69;39574;-72
2022/01/30 17:13:41;;;;;;;37.93;35.27;;;;;;;7.69;100.00;102729.67;1922821;73;934786;-75
2022/01/30 17:16:17;;;;;;;35.27;32.80;;;;;;;7.59;100.00;102740.34;1885977;74;938796;-75
2022/01/30 17:18:44;;;;;;;37.75;34.73;;;;;;;7.63;100.00;102736.07;1921453;72;936776;-72
2022/01/30 17:21:15;;;;;;;39.93;37.17;;;;;;;7.65;100.00;102720.65;1913392;73;938762;-71
2022/01/30 17:23:45;;;;;;;37.83;35.17;;;;;;;7.59;100.00;102726.52;1909424;72;936846;-76
2022/01/30 17:29:30;;;;;;;39.77;36.77;;;;;;;7.68;100.00;102714.13;1886843;75;86344;-73
2022/01/30 17:35:16;;;;;;;43.67;40.57;;;;;;;7.72;100.00;102696.03;1937218;73;86437;-76
2022/01/30 17:41:02;;;;;;;49.07;44.87;;;;;;;7.55;100.00;102684.31;1911567;72;39680;-72
2022/01/30 17:46:47;;;;;;;45.63;42.03;;;;;;;7.66;100.00;102653.17;1859904;76;86257;-73
2022/01/30 17:52:31;;;;;;;48.83;45.10;;;;;;;7.69;100.00;102648.60;1889507;75;86692;-72
2022/01/30 17:58:15;;;;;;;48.33;44.83;;;;;;;7.67;100.00;102657.11;1926932;73;85560;-73
2022/01/30 18:03:59;;;;;;;42.50;39.00;;;;;;;7.64;100.00;102635.44;1944181;71;40298;-76
2022/01/30 18:09:42;;;;;;;44.90;41.57;;;;;;;7.64;100.00;102619.38;1801546;78;86277;-71
2022/01/30 18:15:27;;;;;;;45.97;42.10;;;;;;;7.50;100.00;102624.13;1929755;73;86301;-76
2022/01/30 18:21:12;;;;;;;48.37;44.73;;;;;;;7.41;100.00;102590.05;1824729;77;85577;-75
2022/01/30 18:26:57;;;;;;;49.73;45.90;;;;;;;7.42;100.00;102559.42;1976981;71;85474;-72
2022/01/30 18:32:41;;;;;;;45.17;41.90;;;;;;;7.37;100.00;102546.80;1809274;78;85414;-74
2022/01/30 18:38:36;;;;;;;46.00;42.50;;;;;;;7.31;100.00;102538.03;1940965;72;86366;-74
2022/01/30 18:44:19;;;;;;;47.60;44.23;;;;;;;7.42;100.00;102534.54;1927598;73;86053;-73
2022/01/30 18:50:04;;;;;;;46.60;43.30;;;;;;;7.44;100.00;102503.91;1977015;71;39708;-73
2022/01/30 18:55:49;;;;;;;45.83;42.60;;;;;;;7.54;100.00;102482.97;1840944;76;86571;-73
2022/01/30 19:01:34;;;;;;;45.17;42.27;;;;;;;7.61;100.00;102485.16;1881322;73;85297;-72
2022/01/30 19:07:17;;;;;;;46.63;43.43;;;;;;;7.57;100.00;102465.09;1915823;74;85645;-72
2022/01/30 19:13:06;;;;;;;48.00;44.60;;;;;;;7.71;100.00;102448.14;1986613;71;39409;-73
2022/01/30 19:18:50;;;;;;;49.50;46.30;;;;;;;7.75;100.00;102425.86;1841104;76;86543;-75
2022/01/30 19:24:37;;;;;;;49.30;45.80;;;;;;;7.67;100.00;102401.80;1883051;73;86373;-69
2022/01/30 19:30:21;;;;;;;50.07;46.50;;;;;;;7.76;100.00;102392.14;1907359;72;86283;-76
2022/01/30 19:36:06;;;;;;;51.20;47.87;;;;;;;7.76;100.00;102388.84;1977878;70;40257;-72
2022/01/30 19:41:50;;;;;;;53.73;50.07;;;;;;;7.67;100.00;102383.29;1918960;73;86427;-74
2022/01/30 19:47:39;;;;;;;55.03;50.90;;;;;;;7.83;100.00;102365.23;1882050;74;86240;-77
2022/01/30 19:53:20;;;;;;;55.63;51.83;;;;;;;7.87;100.00;102353.20;1928870;73;86163;-74
2022/01/30 19:59:05;;;;;;;55.37;51.30;;;;;;;7.87;100.00;102320.84;1982878;71;39764;-77
2022/01/30 20:04:51;;;;;;;53.77;49.97;;;;;;;7.87;100.00;102281.27;1848159;76;86103;-71
2022/01/30 20:10:35;;;;;;;56.13;52.40;;;;;;;7.75;100.00;102269.58;1882086;74;86327;-71
2022/01/30 20:16:19;;;;;;;55.87;51.97;;;;;;;7.71;100.00;102249.53;1910861;73;86294;-69
2022/01/30 20:22:05;;;;;;;57.93;54.07;;;;;;;7.77;100.00;102270.74;1957605;71;39577;-70
2022/01/30 20:27:49;;;;;;;57.07;53.03;;;;;;;7.72;100.00;102293.56;1947920;72;85002;-72
2022/01/30 20:33:34;;;;;;;58.80;54.87;;;;;;;7.74;100.00;102297.49;1888837;73;85963;-71
2022/01/30 20:39:19;;;;;;;57.57;53.60;;;;;;;7.92;100.00;102256.48;1927398;73;86394;-72
2022/01/30 20:45:04;;;;;;;56.80;52.93;;;;;;;7.93;100.00;102244.34;1978989;70;39785;-70
2022/01/30 20:50:49;;;;;;;59.20;55.37;;;;;;;8.02;100.00;102214.74;1845061;76;86385;-73
2022/01/30 20:56:33;;;;;;;60.33;56.17;;;;;;;8.07;100.00;102197.44;1865419;75;86276;-75
2022/01/30 21:02:18;;;;;;;59.23;55.23;;;;;;;8.16;100.00;102173.34;1908636;74;86536;-73
2022/01/30 21:08:03;;;;;;;64.47;59.57;;;;;;;8.15;100.00;102162.50;1987051;71;39679;-73
2022/01/30 21:13:51;;;;;;;60.10;55.77;;;;;;;8.22;100.00;102157.69;1835413;76;86440;-72
2022/01/30 21:19:37;;;;;;;63.27;58.47;;;;;;;8.27;100.00;102148.14;1868974;74;86063;-71
2022/01/30 21:25:24;;;;;;;60.27;55.50;;;;;;;8.33;100.00;102136.16;1913690;74;86628;-71
2022/01/30 21:31:10;;;;;;;61.33;57.03;;;;;;;8.30;100.00;102097.04;1941221;71;39739;-71
2022/01/30 21:36:55;;;;;;;62.00;57.00;;;;;;;8.40;100.00;102102.80;1828901;76;86075;-71
2022/01/30 21:42:40;;;;;;;62.47;57.97;;;;;;;8.45;100.00;102068.31;1836883;76;86333;-73
2022/01/30 21:48:26;;;;;;;62.20;57.60;;;;;;;8.61;100.00;102066.19;1903579;73;85334;-74
2022/01/30 21:54:11;;;;;;;61.90;57.60;;;;;;;8.52;100.00;102046.33;1980357;71;39544;-72
2022/01/30 21:59:57;;;;;;;60.60;56.20;;;;;;;8.55;100.00;102043.64;1810418;78;86251;-71
2022/01/30 22:05:41;;;;;;;60.77;56.30;;;;;;;8.64;100.00;102017.26;1795329;79;86644;-72
2022/01/30 22:11:26;;;;;;;61.77;57.13;;;;;;;8.67;100.00;102004.30;1907839;74;86672;-71
2022/01/30 22:17:11;;;;;;;62.57;58.07;;;;;;;8.78;100.00;102002.56;1984625;71;39630;-72
2022/01/30 22:22:55;;;;;;;63.07;58.63;;;;;;;8.86;100.00;101976.70;1840571;76;85362;-73
2022/01/30 22:28:41;;;;;;;63.60;58.87;;;;;;;8.95;100.00;101966.91;1869590;75;86653;-71
2022/01/30 22:34:25;;;;;;;67.03;62.50;;;;;;;9.02;100.00;101952.37;1948689;72;86347;-72
2022/01/30 22:40:16;;;;;;;66.30;61.63;;;;;;;9.08;100.00;101958.84;1914189;73;86249;-74
2022/01/30 22:46:05;;;;;;;66.27;61.70;;;;;;;9.07;100.00;101953.83;1979778;71;39773;-72
2022/01/30 22:51:49;;;;;;;67.93;62.97;;;;;;;9.10;100.00;101959.44;1933581;72;86416;-71
2022/01/30 22:57:33;;;;;;;66.77;62.13;;;;;;;9.10;100.00;101957.52;1871706;75;86542;-71
2022/01/30 23:03:19;;;;;;;64.63;59.97;;;;;;;9.06;100.00;101937.47;1947335;72;86561;-71
2022/01/30 23:09:02;;;;;;;66.77;61.57;;;;;;;9.03;100.00;101955.96;1984390;71;39719;-74
2022/01/30 23:14:44;;;;;;;67.30;62.73;;;;;;;9.00;100.00;101962.02;1881761;74;86762;-72
2022/01/30 23:20:30;;;;;;;65.17;60.17;;;;;;;8.98;100.00;101996.07;1841324;76;86381;-72
2022/01/30 23:26:16;;;;;;;63.60;58.83;;;;;;;8.99;100.00;101996.34;1915344;72;86203;-72
2022/01/30 23:32:00;;;;;;;64.77;60.20;;;;;;;9.01;100.00;101997.80;1982091;71;39507;-74
2022/01/30 23:37:47;;;;;;;65.00;60.50;;;;;;;9.10;100.00;102006.02;1880964;75;85508;-72
2022/01/30 23:43:33;;;;;;;61.63;57.30;;;;;;;9.16;100.00;102018.60;1876534;75;86289;-71
2022/01/30 23:49:18;;;;;;;62.20;57.90;;;;;;;9.09;100.00;102018.73;1942412;73;86374;-74
2022/01/30 23:55:02;;;;;;;67.03;62.63;;;;;;;9.05;100.00;102011.46;1974442;71;39546;-72
